Time;durP1;ratioP1;P1;durP2;ratioP2;P2;SDS_P1;SDS_P2;PMS_P1;PMS_P2;Temp;Humidity;BMP_temperature;BMP_pressure;BME280_temperature;BME280_humidity;BME280_pressure;Samples;Min_cycle;Max_cycle;Signal;HPM_P1;HPM_P2
2023/02/05 00:00:46;;;;;;;22.07;10.80;;;7.00;99.90;;;;;;5051525;28;20186;-77
2023/02/05 00:03:11;;;;;;;22.67;11.30;;;7.10;99.90;;;;;;5052648;28;20634;-79
2023/02/05 00:05:37;;;;;;;25.63;14.67;;;7.10;99.90;;;;;;5051338;28;20257;-78
2023/02/05 00:08:02;;;;;;;19.07;11.77;;;7.10;99.90;;;;;;5052441;28;20294;-78
2023/02/05 00:10:28;;;;;;;26.93;13.47;;;7.30;99.90;;;;;;5035487;28;20178;-79
2023/02/05 00:12:54;;;;;;;25.53;12.77;;;7.20;99.90;;;;;;5034965;28;20178;-79
2023/02/05 00:15:19;;;;;;;24.87;13.80;;;7.20;99.90;;;;;;5051776;28;20555;-77
2023/02/05 00:17:45;;;;;;;15.93;10.80;;;7.20;99.90;;;;;;5051661;28;20178;-79
2023/02/05 00:20:11;;;;;;;24.07;12.10;;;7.20;99.90;;;;;;5034778;28;20182;-79
2023/02/05 00:22:36;;;;;;;25.70;13.33;;;7.20;99.90;;;;;;5057065;28;20212;-79
2023/02/05 00:25:02;;;;;;;21.43;11.97;;;7.10;99.90;;;;;;5056836;28;20197;-78
2023/02/05 00:27:28;;;;;;;23.37;12.20;;;7.30;99.90;;;;;;5056471;28;20197;-79
2023/02/05 00:29:53;;;;;;;23.30;12.30;;;6.90;99.90;;;;;;5038020;28;20499;-78
2023/02/05 00:32:19;;;;;;;20.73;12.03;;;7.00;99.90;;;;;;5038904;28;20571;-78
2023/02/05 00:34:45;;;;;;;22.20;12.77;;;7.00;99.90;;;;;;5055617;28;20206;-78
2023/02/05 00:37:10;;;;;;;23.07;11.80;;;7.00;99.90;;;;;;5056625;28;20264;-79
2023/02/05 00:39:36;;;;;;;21.83;11.67;;;7.00;99.90;;;;;;5056661;28;20181;-79
2023/02/05 00:42:02;;;;;;;22.70;12.23;;;7.10;99.90;;;;;;5038697;28;20196;-78
2023/02/05 00:44:27;;;;;;;27.97;12.27;;;7.10;99.90;;;;;;5054600;28;20201;-79
2023/02/05 00:46:53;;;;;;;18.37;11.00;;;7.00;99.90;;;;;;5055173;28;20704;-79
2023/02/05 00:49:18;;;;;;;23.90;12.00;;;7.20;99.90;;;;;;5055476;28;20181;-79
2023/02/05 00:51:44;;;;;;;24.80;12.13;;;7.10;99.90;;;;;;5038298;28;20694;-79
2023/02/05 00:54:10;;;;;;;24.30;13.17;;;7.20;99.90;;;;;;5056404;28;20228;-79
2023/02/05 00:56:35;;;;;;;20.13;11.50;;;7.20;99.90;;;;;;5038530;28;20192;-79
2023/02/05 00:59:01;;;;;;;28.77;13.17;;;7.30;99.90;;;;;;5054924;28;20186;-79
2023/02/05 01:01:27;;;;;;;23.17;12.27;;;7.30;99.90;;;;;;5056536;28;20550;-79
2023/02/05 01:03:53;;;;;;;21.00;12.00;;;7.10;99.90;;;;;;5054618;28;20185;-77
2023/02/05 01:06:19;;;;;;;17.13;11.33;;;7.10;99.90;;;;;;5054870;28;20502;-78
2023/02/05 01:08:45;;;;;;;24.17;12.57;;;7.10;99.90;;;;;;5037743;28;20244;-79
2023/02/05 01:11:11;;;;;;;15.30;10.10;;;7.10;99.90;;;;;;5056324;28;20416;-79
2023/02/05 01:13:38;;;;;;;23.70;11.90;;;7.20;99.90;;;;;;5055441;28;20409;-77
2023/02/05 01:16:03;;;;;;;20.17;11.13;;;7.20;99.90;;;;;;5038379;28;20202;-79
2023/02/05 01:18:29;;;;;;;20.00;10.93;;;7.20;99.90;;;;;;5055845;28;20469;-79
2023/02/05 01:20:55;;;;;;;25.73;11.63;;;7.30;99.90;;;;;;5055820;28;20232;-78
2023/02/05 01:23:21;;;;;;;28.27;11.27;;;7.20;99.90;;;;;;5037522;28;20217;-78
2023/02/05 01:25:46;;;;;;;27.50;11.77;;;7.20;99.90;;;;;;5054596;28;20600;-79
2023/02/05 01:28:12;;;;;;;27.27;12.97;;;7.20;99.90;;;;;;5054050;28;20205;-79
2023/02/05 01:30:38;;;;;;;28.17;13.10;;;7.40;99.90;;;;;;5055404;28;20174;-79
2023/02/05 01:33:03;;;;;;;20.90;12.93;;;7.30;99.90;;;;;;5054859;28;20257;-77
2023/02/05 01:35:29;;;;;;;26.53;13.63;;;7.50;99.90;;;;;;5037875;28;20228;-79
2023/02/05 01:37:55;;;;;;;24.23;12.87;;;7.20;99.90;;;;;;5054184;28;20186;-79
2023/02/05 01:40:21;;;;;;;23.73;12.97;;;7.40;99.90;;;;;;5055221;28;20185;-79
2023/02/05 01:42:46;;;;;;;27.73;14.77;;;7.20;99.90;;;;;;5054067;28;20185;-79
2023/02/05 01:45:21;;;;;;;26.13;13.67;;;7.30;99.90;;;;;;5055173;28;20440;-78
2023/02/05 01:47:52;;;;;;;32.27;12.47;;;7.20;99.90;;;;;;5053917;28;20686;-79
2023/02/05 01:50:31;;;;;;;23.50;13.20;;;7.30;99.90;;;;;;5054066;28;20409;-78
2023/02/05 01:53:01;;;;;;;23.43;11.37;;;7.40;99.90;;;;;;5053807;28;20478;-79
2023/02/05 01:55:27;;;;;;;28.80;12.13;;;7.30;99.90;;;;;;5054412;28;20436;-79
2023/02/05 01:57:54;;;;;;;22.63;11.27;;;7.50;99.90;;;;;;5053406;28;20409;-79
2023/02/05 02:00:21;;;;;;;36.80;13.03;;;7.20;99.90;;;;;;5054740;28;20416;-79
2023/02/05 02:02:47;;;;;;;23.43;11.30;;;7.50;99.90;;;;;;5055060;28;20409;-78
2023/02/05 02:05:15;;;;;;;23.17;10.70;;;7.50;99.90;;;;;;5054281;28;20456;-76
2023/02/05 02:07:41;;;;;;;23.23;12.30;;;7.40;99.90;;;;;;5052761;28;20467;-78
2023/02/05 02:10:09;;;;;;;21.57;11.60;;;7.30;99.90;;;;;;5054989;28;20421;-78
2023/02/05 02:12:38;;;;;;;29.67;12.23;;;7.20;99.90;;;;;;5053392;28;20209;-78
2023/02/05 02:15:09;;;;;;;21.73;11.60;;;7.30;99.90;;;;;;5053233;28;20969;-78
2023/02/05 02:17:38;;;;;;;27.57;13.20;;;7.40;99.90;;;;;;5053727;28;20452;-76
2023/02/05 02:20:05;;;;;;;27.07;11.57;;;7.30;99.90;;;;;;5053006;28;20780;-79
2023/02/05 02:22:49;;;;;;;23.60;11.80;;;7.30;99.90;;;;;;5038144;28;20428;-79
2023/02/05 02:25:39;;;;;;;28.87;13.83;;;7.50;99.90;;;;;;5054663;28;20439;-78
2023/02/05 02:28:26;;;;;;;21.50;12.50;;;7.40;99.90;;;;;;5056154;28;20543;-79
2023/02/05 02:31:05;;;;;;;24.23;11.93;;;7.60;99.90;;;;;;5054789;28;20416;-79
2023/02/05 02:34:09;;;;;;;17.87;10.90;;;7.40;99.90;;;;;;5054187;28;20507;-77
2023/02/05 02:37:08;;;;;;;22.83;10.90;;;7.40;99.90;;;;;;5043905;28;20419;-79
2023/02/05 02:39:53;;;;;;;19.83;10.73;;;7.40;99.90;;;;;;5009800;28;20440;-76
2023/02/05 02:42:37;;;;;;;24.50;11.20;;;7.40;99.90;;;;;;5052988;28;20828;-78
2023/02/05 02:45:07;;;;;;;22.20;10.70;;;7.40;99.90;;;;;;5051943;28;20436;-77
2023/02/05 02:48:00;;;;;;;25.57;12.03;;;7.30;99.90;;;;;;5052820;28;20483;-78
2023/02/05 02:50:31;;;;;;;27.67;11.70;;;7.60;99.90;;;;;;5033182;28;20453;-79
2023/02/05 02:53:06;;;;;;;19.03;11.50;;;7.40;99.90;;;;;;5054131;28;20835;-78
2023/02/05 02:55:36;;;;;;;25.13;12.23;;;7.30;99.90;;;;;;5052732;28;20428;-78
2023/02/05 02:58:04;;;;;;;23.83;12.37;;;7.30;99.90;;;;;;5052203;28;20446;-76
2023/02/05 03:00:31;;;;;;;29.37;12.80;;;7.30;99.90;;;;;;5052622;28;20499;-78
2023/02/05 03:03:05;;;;;;;22.00;12.40;;;7.30;99.90;;;;;;5052436;28;20482;-78
2023/02/05 03:05:34;;;;;;;25.63;12.83;;;7.30;99.90;;;;;;5052331;28;20460;-79
2023/02/05 03:08:16;;;;;;;24.20;11.47;;;7.50;99.90;;;;;;5053787;28;20463;-78
2023/02/05 03:10:49;;;;;;;27.87;11.93;;;7.40;99.90;;;;;;5054557;28;21000;-79
2023/02/05 03:13:15;;;;;;;24.27;12.63;;;7.40;99.90;;;;;;5052184;28;20416;-78
2023/02/05 03:15:43;;;;;;;24.30;14.53;;;7.40;99.90;;;;;;5052461;28;20452;-77
2023/02/05 03:18:10;;;;;;;22.90;11.83;;;7.30;99.90;;;;;;5035303;28;20913;-78
2023/02/05 03:20:42;;;;;;;28.23;15.10;;;7.40;99.90;;;;;;5051678;28;20408;-79
2023/02/05 03:23:08;;;;;;;20.30;13.30;;;7.50;99.90;;;;;;5053468;28;20865;-77
2023/02/05 03:25:34;;;;;;;25.20;13.03;;;7.40;99.90;;;;;;5052190;28;20530;-79
2023/02/05 03:27:59;;;;;;;21.87;13.20;;;7.40;99.90;;;;;;5052033;28;20213;-79
2023/02/05 03:30:35;;;;;;;25.60;13.97;;;7.30;99.90;;;;;;5053478;28;20249;-77
2023/02/05 03:33:21;;;;;;;25.63;13.77;;;7.50;99.90;;;;;;5052168;28;20215;-79
2023/02/05 03:35:59;;;;;;;27.50;14.60;;;7.60;99.90;;;;;;5050755;28;20436;-79
2023/02/05 03:38:35;;;;;;;25.07;14.57;;;7.30;99.90;;;;;;5052277;28;20444;-77
2023/02/05 03:41:54;;;;;;;25.00;12.27;;;7.50;99.90;;;;;;5053622;28;20917;-78
2023/02/05 03:44:25;;;;;;;30.57;14.53;;;7.40;99.90;;;;;;5045811;28;20887;-78
2023/02/05 03:47:00;;;;;;;29.43;13.83;;;7.40;99.90;;;;;;5053561;28;20974;-79
2023/02/05 03:50:04;;;;;;;21.47;13.53;;;7.50;99.90;;;;;;5052354;28;20636;-77
2023/02/05 03:52:37;;;;;;;23.97;13.53;;;7.50;99.90;;;;;;5034876;28;20443;-80
2023/02/05 03:55:09;;;;;;;22.07;13.43;;;7.60;99.90;;;;;;5052461;28;21085;-79
2023/02/05 03:57:44;;;;;;;26.30;13.40;;;7.40;99.90;;;;;;5056016;28;20523;-78
2023/02/05 04:00:12;;;;;;;23.50;14.00;;;7.50;99.90;;;;;;5055916;28;20522;-79
2023/02/05 04:02:37;;;;;;;25.03;14.03;;;7.50;99.90;;;;;;5057456;28;20838;-79
2023/02/05 04:05:03;;;;;;;26.57;14.90;;;7.30;99.90;;;;;;5056828;28;20544;-79
2023/02/05 04:07:29;;;;;;;33.13;14.50;;;7.30;99.90;;;;;;5057438;28;20209;-79
2023/02/05 04:09:54;;;;;;;27.07;14.47;;;7.60;99.90;;;;;;5059927;28;20487;-77
2023/02/05 04:12:20;;;;;;;25.70;14.80;;;7.40;99.90;;;;;;5061312;28;20642;-79
2023/02/05 04:14:46;;;;;;;25.43;14.90;;;7.40;99.90;;;;;;5058190;28;20201;-79
2023/02/05 04:17:11;;;;;;;22.10;14.77;;;7.30;99.90;;;;;;5055865;28;20208;-79
2023/02/05 04:19:37;;;;;;;22.33;13.90;;;7.30;99.90;;;;;;5055407;28;20244;-78
2023/02/05 04:22:03;;;;;;;25.53;14.13;;;7.30;99.90;;;;;;5057275;28;20716;-77
2023/02/05 04:24:29;;;;;;;33.40;16.50;;;7.40;99.90;;;;;;5055583;28;20285;-78
2023/02/05 04:26:55;;;;;;;31.90;15.37;;;7.50;99.90;;;;;;5055203;28;20201;-79
2023/02/05 04:29:21;;;;;;;27.00;14.17;;;7.40;99.90;;;;;;5055699;28;20551;-78
2023/02/05 04:31:47;;;;;;;28.00;15.07;;;7.40;99.90;;;;;;5056680;28;20416;-79
2023/02/05 04:34:12;;;;;;;25.87;14.30;;;7.40;99.90;;;;;;5056560;28;20223;-79
2023/02/05 04:36:38;;;;;;;30.30;15.03;;;7.40;99.90;;;;;;5056696;28;20180;-78
2023/02/05 04:39:04;;;;;;;28.57;14.70;;;7.40;99.90;;;;;;5056176;28;20210;-77
2023/02/05 04:41:29;;;;;;;23.77;14.43;;;7.40;99.90;;;;;;5055275;28;20182;-77
2023/02/05 04:43:55;;;;;;;30.57;15.07;;;7.60;99.90;;;;;;5056584;28;20170;-79
2023/02/05 04:46:20;;;;;;;22.80;14.30;;;7.40;99.90;;;;;;5038613;28;20178;-79
2023/02/05 04:48:46;;;;;;;28.63;15.50;;;7.40;99.90;;;;;;5055416;28;20202;-78
2023/02/05 04:51:13;;;;;;;24.97;15.90;;;7.40;99.90;;;;;;5055699;28;20204;-78
2023/02/05 04:53:39;;;;;;;30.20;14.90;;;7.40;99.90;;;;;;5055740;28;20307;-79
2023/02/05 04:56:07;;;;;;;22.57;13.10;;;7.60;99.90;;;;;;5056911;28;20962;-78
2023/02/05 04:58:32;;;;;;;21.93;12.13;;;7.40;99.90;;;;;;5056107;28;20182;-78
2023/02/05 05:00:58;;;;;;;23.43;13.97;;;7.40;99.90;;;;;;5037899;28;20769;-79
2023/02/05 05:03:24;;;;;;;26.87;12.63;;;7.40;99.90;;;;;;5054584;28;20174;-79
2023/02/05 05:05:49;;;;;;;20.70;13.63;;;7.50;99.90;;;;;;5055091;28;20231;-79
2023/02/05 05:08:15;;;;;;;19.57;13.77;;;7.40;99.90;;;;;;5054891;28;20202;-79
2023/02/05 05:10:41;;;;;;;23.57;14.90;;;7.40;99.90;;;;;;5054004;28;20589;-79
2023/02/05 05:13:06;;;;;;;22.23;14.20;;;7.40;99.90;;;;;;5054641;28;20260;-78
2023/02/05 05:15:32;;;;;;;26.67;16.10;;;7.50;99.90;;;;;;5055959;28;20190;-79
2023/02/05 05:17:57;;;;;;;22.80;14.90;;;7.50;99.90;;;;;;5053759;28;20213;-79
2023/02/05 05:20:23;;;;;;;23.57;15.47;;;7.40;99.90;;;;;;5053132;28;20235;-78
2023/02/05 05:22:48;;;;;;;24.40;16.07;;;7.50;99.90;;;;;;5038249;28;20203;-78
2023/02/05 05:25:14;;;;;;;26.17;16.00;;;7.50;99.90;;;;;;5055580;28;20212;-79
2023/02/05 05:27:40;;;;;;;27.37;17.27;;;7.50;99.90;;;;;;5055811;28;20554;-78
2023/02/05 05:30:06;;;;;;;25.37;16.03;;;7.50;99.90;;;;;;5055207;28;20209;-78
2023/02/05 05:32:31;;;;;;;25.10;15.80;;;7.50;99.90;;;;;;5037891;28;20646;-78
2023/02/05 05:34:57;;;;;;;25.23;16.20;;;7.50;99.90;;;;;;5055034;28;20527;-78
2023/02/05 05:37:23;;;;;;;26.13;15.10;;;7.50;99.90;;;;;;5055225;28;20209;-79
2023/02/05 05:45:17;;;;;;;28.37;17.20;;;7.50;99.90;;;;;;5055161;28;20451;-77
2023/02/05 05:47:42;;;;;;;25.83;15.37;;;7.60;99.90;;;;;;5036715;28;20455;-79
2023/02/05 05:50:08;;;;;;;24.90;16.50;;;7.60;99.90;;;;;;5055449;28;20631;-78
2023/02/05 05:52:34;;;;;;;28.10;17.57;;;7.60;99.90;;;;;;5053495;28;20182;-78
2023/02/05 05:54:59;;;;;;;28.70;16.87;;;7.80;99.90;;;;;;5054133;28;20486;-79
2023/02/05 05:57:25;;;;;;;26.43;16.73;;;7.70;99.90;;;;;;5053731;28;20170;-79
2023/02/05 05:59:51;;;;;;;26.00;16.13;;;7.60;99.90;;;;;;5037519;28;20716;-78
2023/02/05 06:02:16;;;;;;;25.30;16.67;;;7.40;99.90;;;;;;5053907;28;20642;-77
2023/02/05 06:04:42;;;;;;;32.47;19.17;;;7.60;99.90;;;;;;5054338;28;20270;-79
2023/02/05 06:07:07;;;;;;;26.07;17.40;;;7.60;99.90;;;;;;5053231;28;20251;-78
2023/02/05 06:09:33;;;;;;;28.60;18.57;;;7.70;99.90;;;;;;5036841;28;20276;-78
2023/02/05 06:11:59;;;;;;;29.80;18.40;;;7.60;99.90;;;;;;5053616;28;20184;-78
2023/02/05 06:14:24;;;;;;;34.37;19.73;;;7.60;99.90;;;;;;5052950;28;20208;-79
2023/02/05 06:16:51;;;;;;;34.67;21.53;;;7.60;99.90;;;;;;5055092;28;20174;-79
2023/02/05 06:19:17;;;;;;;36.10;20.50;;;7.70;99.90;;;;;;5053061;28;20178;-78
2023/02/05 06:21:43;;;;;;;41.97;24.40;;;7.70;99.90;;;;;;5054234;28;20416;-79
2023/02/05 06:24:08;;;;;;;32.47;22.07;;;7.70;99.90;;;;;;5052763;28;20535;-79
2023/02/05 06:26:34;;;;;;;35.90;22.63;;;7.70;99.90;;;;;;5054574;28;20457;-76
2023/02/05 06:29:02;;;;;;;38.17;22.40;;;7.70;99.90;;;;;;5052719;28;20197;-79
2023/02/05 06:31:29;;;;;;;39.37;24.03;;;7.70;99.90;;;;;;5053748;28;20182;-79
2023/02/05 06:33:54;;;;;;;37.50;22.73;;;7.80;99.90;;;;;;5054798;28;20838;-78
2023/02/05 06:36:20;;;;;;;43.67;24.20;;;7.60;99.90;;;;;;5053338;28;20427;-78
2023/02/05 06:38:46;;;;;;;41.50;23.50;;;7.80;99.90;;;;;;5053813;28;20182;-77
2023/02/05 06:41:11;;;;;;;39.60;23.40;;;7.80;99.90;;;;;;5053166;28;20174;-77
2023/02/05 06:43:37;;;;;;;46.50;25.63;;;7.60;99.90;;;;;;5053207;28;20190;-78
2023/02/05 06:46:03;;;;;;;41.93;24.40;;;7.70;99.90;;;;;;5053469;28;20281;-79
2023/02/05 06:48:28;;;;;;;40.90;25.03;;;7.80;99.90;;;;;;5054148;28;20241;-79
2023/02/05 06:50:54;;;;;;;44.87;25.60;;;7.80;99.90;;;;;;5036030;28;20323;-79
2023/02/05 06:53:19;;;;;;;42.83;25.73;;;7.70;99.90;;;;;;5054131;28;20264;-79
2023/02/05 06:55:45;;;;;;;42.60;25.33;;;7.60;99.90;;;;;;5054695;28;20194;-78
2023/02/05 06:58:11;;;;;;;43.30;28.07;;;7.80;99.90;;;;;;5053255;28;20184;-79
2023/02/05 07:00:37;;;;;;;41.40;27.50;;;7.60;99.90;;;;;;5036341;28;20185;-79
2023/02/05 07:03:03;;;;;;;43.70;26.77;;;7.70;99.90;;;;;;5053261;28;20550;-78
2023/02/05 07:05:28;;;;;;;41.07;27.07;;;7.90;99.90;;;;;;5053193;28;20513;-79
2023/02/05 07:07:54;;;;;;;41.80;27.27;;;7.60;99.90;;;;;;5053302;28;20463;-78
2023/02/05 07:10:20;;;;;;;43.23;27.67;;;7.70;99.90;;;;;;5055309;28;20174;-77
2023/02/05 07:12:45;;;;;;;43.43;27.50;;;7.80;99.90;;;;;;5055749;28;20182;-79
2023/02/05 07:15:11;;;;;;;45.27;28.57;;;7.80;99.90;;;;;;5054966;28;20194;-79
2023/02/05 07:17:38;;;;;;;37.47;25.70;;;7.70;99.90;;;;;;5052459;28;20185;-79
2023/02/05 07:20:04;;;;;;;40.57;26.60;;;7.80;99.90;;;;;;5053461;28;20181;-79
2023/02/05 07:22:30;;;;;;;38.93;25.40;;;7.60;99.90;;;;;;5052911;28;20408;-79
2023/02/05 07:24:56;;;;;;;44.23;26.20;;;7.60;99.90;;;;;;5053841;28;20442;-79
2023/02/05 07:27:22;;;;;;;41.13;28.40;;;7.70;99.90;;;;;;5052194;28;20200;-78
2023/02/05 07:29:48;;;;;;;42.33;26.10;;;7.70;99.90;;;;;;5053610;28;20795;-78
2023/02/05 07:32:13;;;;;;;38.30;26.60;;;7.70;99.90;;;;;;5053306;28;20427;-79
2023/02/05 07:34:39;;;;;;;38.50;25.03;;;7.60;99.90;;;;;;5051901;28;20864;-79
2023/02/05 07:37:05;;;;;;;43.90;26.80;;;7.70;99.90;;;;;;5052848;28;20624;-79
2023/02/05 07:39:32;;;;;;;37.40;24.47;;;7.60;99.90;;;;;;5053557;28;20189;-77
2023/02/05 07:41:58;;;;;;;36.17;23.93;;;7.70;99.90;;;;;;5053599;28;20170;-78
2023/02/05 07:44:24;;;;;;;33.53;22.37;;;7.60;99.90;;;;;;5051288;28;20933;-78
2023/02/05 07:46:50;;;;;;;27.40;20.70;;;7.70;99.90;;;;;;5053460;28;20424;-80
2023/02/05 07:49:15;;;;;;;26.60;18.73;;;7.80;99.90;;;;;;5052065;28;20178;-79
2023/02/05 07:51:41;;;;;;;27.43;20.17;;;7.90;99.90;;;;;;5053417;28;20564;-79
2023/02/05 07:54:08;;;;;;;29.97;20.37;;;7.80;99.90;;;;;;5053207;28;20170;-80
2023/02/05 07:56:34;;;;;;;32.00;20.87;;;7.70;99.90;;;;;;5035466;28;20189;-79
2023/02/05 07:59:00;;;;;;;26.43;20.40;;;7.60;99.90;;;;;;5051699;28;20449;-79
2023/02/05 08:01:25;;;;;;;26.50;19.77;;;7.80;99.90;;;;;;5052061;28;20193;-79
2023/02/05 08:03:51;;;;;;;28.57;20.17;;;7.80;99.90;;;;;;5052645;28;20508;-79
2023/02/05 08:06:16;;;;;;;29.10;20.57;;;7.70;99.90;;;;;;5051756;28;20336;-79
2023/02/05 08:08:42;;;;;;;26.60;19.50;;;7.60;99.90;;;;;;5035672;28;20235;-78
2023/02/05 08:11:13;;;;;;;28.10;19.07;;;7.50;99.90;;;;;;5053115;28;20189;-79
2023/02/05 08:13:39;;;;;;;25.60;18.50;;;7.60;99.90;;;;;;5052100;28;20627;-79
2023/02/05 08:16:06;;;;;;;18.83;14.93;;;7.60;99.90;;;;;;5052810;28;20531;-78
2023/02/05 08:18:31;;;;;;;22.87;15.43;;;7.80;99.90;;;;;;5052813;28;20673;-79
2023/02/05 08:20:57;;;;;;;23.20;16.50;;;7.70;99.90;;;;;;5050890;28;20416;-79
2023/02/05 08:23:23;;;;;;;25.57;16.80;;;7.70;99.90;;;;;;5051714;28;20182;-78
2023/02/05 08:25:56;;;;;;;20.97;16.50;;;7.60;99.90;;;;;;5051549;28;20205;-79
2023/02/05 08:28:22;;;;;;;22.50;16.97;;;7.60;99.90;;;;;;5052354;28;20292;-80
2023/02/05 08:30:48;;;;;;;20.60;16.50;;;7.50;99.90;;;;;;5051454;28;20409;-80
2023/02/05 08:33:14;;;;;;;21.80;16.47;;;7.90;99.90;;;;;;5051759;28;20423;-79
2023/02/05 08:35:39;;;;;;;22.97;17.27;;;7.60;99.90;;;;;;5051877;28;20253;-79
2023/02/05 08:38:05;;;;;;;20.43;15.83;;;7.90;99.90;;;;;;5051923;28;20186;-80
2023/02/05 08:40:30;;;;;;;21.00;14.70;;;7.70;99.90;;;;;;5034367;28;20216;-78
2023/02/05 08:42:59;;;;;;;25.00;16.17;;;7.60;99.90;;;;;;5054065;28;20178;-80
2023/02/05 08:45:28;;;;;;;16.17;13.07;;;7.70;99.90;;;;;;5038683;28;20202;-80
2023/02/05 08:47:54;;;;;;;13.00;11.17;;;7.60;99.90;;;;;;5054970;28;20498;-78
2023/02/05 08:50:20;;;;;;;14.83;10.60;;;7.60;99.90;;;;;;5056113;28;20831;-79
2023/02/05 08:52:46;;;;;;;14.93;9.80;;;7.60;99.90;;;;;;5063902;28;20416;-79
2023/02/05 08:55:13;;;;;;;9.10;7.77;;;7.40;99.90;;;;;;5061400;28;20890;-79
2023/02/05 08:57:39;;;;;;;9.13;7.10;;;7.40;99.90;;;;;;5056712;28;20435;-79
2023/02/05 09:00:05;;;;;;;8.30;5.70;;;7.30;99.90;;;;;;5054644;28;20897;-79
2023/02/05 09:02:31;;;;;;;4.90;4.33;;;7.40;99.90;;;;;;5037495;28;20421;-79
2023/02/05 09:04:57;;;;;;;5.80;4.13;;;7.40;99.90;;;;;;5054113;28;20463;-80
2023/02/05 09:07:22;;;;;;;4.77;3.40;;;7.60;99.90;;;;;;5037281;28;20471;-78
2023/02/05 09:09:48;;;;;;;3.77;3.30;;;7.60;99.90;;;;;;5057642;28;20197;-78
2023/02/05 09:12:14;;;;;;;3.67;2.20;;;7.40;99.90;;;;;;5057558;28;20173;-79
2023/02/05 09:14:39;;;;;;;5.90;2.50;;;7.30;99.90;;;;;;5056229;28;20209;-79
2023/02/05 09:17:07;;;;;;;3.20;2.00;;;7.30;99.90;;;;;;5058466;28;20252;-78
2023/02/05 09:19:34;;;;;;;2.77;1.73;;;7.40;99.90;;;;;;5058283;28;20208;-79
2023/02/05 09:21:59;;;;;;;3.00;1.70;;;7.40;99.90;;;;;;5058127;28;20424;-78
2023/02/05 09:24:25;;;;;;;1.43;1.20;;;7.10;99.90;;;;;;5058995;28;20855;-78
2023/02/05 09:26:51;;;;;;;1.37;1.10;;;7.20;99.90;;;;;;5040879;28;20281;-80
2023/02/05 09:29:16;;;;;;;3.10;1.70;;;7.10;99.90;;;;;;5057825;28;20166;-78
2023/02/05 09:31:42;;;;;;;1.40;1.30;;;7.10;99.90;;;;;;5058837;28;20962;-79
2023/02/05 09:34:07;;;;;;;1.73;1.40;;;7.00;99.90;;;;;;5059683;28;20204;-79
2023/02/05 09:36:33;;;;;;;1.20;1.10;;;7.10;99.90;;;;;;5060023;28;20197;-78
2023/02/05 09:38:59;;;;;;;2.73;1.27;;;7.10;99.90;;;;;;5060048;28;20200;-79
2023/02/05 09:41:30;;;;;;;1.20;1.00;;;7.20;99.90;;;;;;5058165;28;20198;-79
2023/02/05 09:44:01;;;;;;;4.50;1.40;;;7.20;99.90;;;;;;5059473;28;20213;-79
2023/02/05 09:46:49;;;;;;;1.13;0.87;;;7.20;99.90;;;;;;5057974;28;20577;-78
2023/02/05 09:49:26;;;;;;;1.20;0.90;;;7.20;99.90;;;;;;5057848;28;20416;-78
2023/02/05 09:52:07;;;;;;;1.83;0.70;;;7.10;99.90;;;;;;5060147;28;20419;-79
2023/02/05 09:54:40;;;;;;;2.40;0.87;;;7.20;99.90;;;;;;5058461;28;20440;-79
2023/02/05 09:57:10;;;;;;;3.57;1.20;;;7.20;99.90;;;;;;5058731;28;20474;-79
2023/02/05 09:59:41;;;;;;;1.17;0.63;;;7.20;99.90;;;;;;5059710;28;20510;-79
2023/02/05 10:02:26;;;;;;;1.43;0.80;;;7.20;99.90;;;;;;5059463;28;20426;-78
2023/02/05 10:04:53;;;;;;;2.10;1.00;;;7.40;99.90;;;;;;5058280;28;20460;-79
2023/02/05 10:07:28;;;;;;;2.53;1.20;;;7.30;99.90;;;;;;5058465;28;20460;-79
2023/02/05 10:10:03;;;;;;;2.30;1.03;;;7.30;99.90;;;;;;5057891;28;20415;-79
2023/02/05 10:12:35;;;;;;;2.37;1.17;;;7.30;99.90;;;;;;5059681;28;20446;-79
2023/02/05 10:15:19;;;;;;;1.87;1.00;;;7.10;99.90;;;;;;5057323;28;20428;-79
2023/02/05 10:17:49;;;;;;;1.60;1.07;;;7.20;99.90;;;;;;5058010;28;20424;-80
2023/02/05 10:20:30;;;;;;;2.53;1.40;;;7.30;99.90;;;;;;5040600;28;20435;-78
2023/02/05 10:23:26;;;;;;;2.40;1.30;;;7.20;99.90;;;;;;5058068;28;20423;-79
2023/02/05 10:26:03;;;;;;;3.83;1.17;;;7.40;99.90;;;;;;5040558;28;20523;-79
2023/02/05 10:29:02;;;;;;;2.37;1.30;;;7.50;99.90;;;;;;5057219;28;20523;-77
2023/02/05 10:31:42;;;;;;;1.40;1.00;;;7.60;99.90;;;;;;5057306;28;20823;-79
2023/02/05 10:34:39;;;;;;;1.37;1.10;;;7.30;99.90;;;;;;5058404;28;20467;-78
2023/02/05 10:37:12;;;;;;;2.30;1.30;;;7.40;99.90;;;;;;5058330;28;20916;-78
2023/02/05 10:39:38;;;;;;;4.63;1.63;;;7.40;99.90;;;;;;5056647;28;20461;-79
2023/02/05 10:42:25;;;;;;;2.70;1.20;;;7.40;99.90;;;;;;5057795;28;20412;-79
2023/02/05 10:45:17;;;;;;;3.33;1.27;;;7.60;99.90;;;;;;5059087;28;20228;-79
2023/02/05 10:48:01;;;;;;;2.90;1.40;;;7.30;99.90;;;;;;5041709;28;20475;-79
2023/02/05 10:50:30;;;;;;;6.93;1.83;;;7.20;99.90;;;;;;5059432;28;20426;-79
2023/02/05 10:52:56;;;;;;;4.53;2.00;;;7.30;99.90;;;;;;5058428;28;20995;-79
2023/02/05 10:55:21;;;;;;;5.37;2.87;;;7.60;99.90;;;;;;5057620;28;20436;-79
2023/02/05 10:57:47;;;;;;;6.40;2.93;;;7.40;99.90;;;;;;5057635;28;20192;-79
2023/02/05 11:00:21;;;;;;;4.97;3.37;;;7.40;99.90;;;;;;5059266;28;20208;-78
2023/02/05 11:02:51;;;;;;;4.90;3.33;;;7.40;99.90;;;;;;5058959;28;20181;-79
2023/02/05 11:05:25;;;;;;;4.97;4.47;;;7.40;99.90;;;;;;5040453;28;20499;-79
2023/02/05 11:07:53;;;;;;;3.40;3.00;;;7.40;99.90;;;;;;5058945;28;20487;-79
2023/02/05 11:10:24;;;;;;;4.43;3.70;;;7.30;99.90;;;;;;5057941;28;20451;-79
2023/02/05 11:12:58;;;;;;;5.73;3.13;;;7.40;99.90;;;;;;5058974;28;20413;-79
2023/02/05 11:15:25;;;;;;;6.03;3.00;;;7.50;99.90;;;;;;5057957;28;20501;-79
2023/02/05 11:18:15;;;;;;;4.90;3.00;;;7.30;99.90;;;;;;5058914;28;20519;-79
2023/02/05 11:20:54;;;;;;;6.30;2.40;;;7.30;99.90;;;;;;5058683;28;20609;-78
2023/02/05 11:23:22;;;;;;;2.30;1.80;;;7.40;99.90;;;;;;5059149;28;20424;-79
2023/02/05 11:25:59;;;;;;;2.73;2.10;;;7.40;99.90;;;;;;5061018;28;20443;-79
2023/02/05 11:28:30;;;;;;;4.70;2.10;;;7.30;99.90;;;;;;5059809;28;20513;-79
2023/02/05 11:30:57;;;;;;;3.57;1.70;;;7.40;99.90;;;;;;5043028;28;20431;-79
2023/02/05 11:33:26;;;;;;;2.57;1.70;;;7.40;99.90;;;;;;5060662;28;20424;-79
2023/02/05 11:36:02;;;;;;;3.10;1.97;;;7.40;99.90;;;;;;5061256;28;20515;-78
2023/02/05 11:38:33;;;;;;;2.10;1.73;;;7.40;99.90;;;;;;5060389;28;20420;-78
2023/02/05 11:41:05;;;;;;;2.00;1.10;;;7.50;99.90;;;;;;5059684;28;20428;-79
2023/02/05 11:43:37;;;;;;;2.37;1.40;;;7.30;99.90;;;;;;5059700;28;20424;-79
2023/02/05 11:46:07;;;;;;;4.13;1.53;;;7.30;99.90;;;;;;5059802;28;20534;-79
2023/02/05 11:48:38;;;;;;;1.93;1.73;;;7.30;99.90;;;;;;5060202;28;20462;-79
2023/02/05 11:51:06;;;;;;;2.30;1.73;;;7.10;99.90;;;;;;5059024;28;20428;-78
2023/02/05 11:53:34;;;;;;;2.90;2.30;;;7.20;99.90;;;;;;5060549;28;20427;-78
2023/02/05 11:56:17;;;;;;;4.87;2.10;;;7.30;99.90;;;;;;5055217;28;20432;-79
2023/02/05 11:59:00;;;;;;;2.70;2.50;;;7.20;99.90;;;;;;5054544;28;20470;-79
2023/02/05 12:01:31;;;;;;;4.30;3.57;;;7.30;99.90;;;;;;5056354;28;20416;-79
2023/02/05 12:04:10;;;;;;;4.83;3.70;;;7.00;99.90;;;;;;5057840;28;20428;-79
2023/02/05 12:07:07;;;;;;;4.03;3.67;;;7.10;99.90;;;;;;5059165;28;20444;-79
2023/02/05 12:09:33;;;;;;;3.93;3.33;;;7.10;99.90;;;;;;5057277;28;20468;-79
2023/02/05 12:12:26;;;;;;;4.10;3.80;;;7.20;99.90;;;;;;5057752;28;20428;-79
2023/02/05 12:15:37;;;;;;;3.60;3.27;;;7.20;99.90;;;;;;5059094;28;20202;-79
2023/02/05 12:18:16;;;;;;;3.07;2.77;;;7.10;99.90;;;;;;5044808;28;20474;-79
2023/02/05 12:21:08;;;;;;;3.37;2.90;;;7.10;99.90;;;;;;5061064;28;20840;-79
2023/02/05 12:23:54;;;;;;;3.17;2.87;;;7.20;99.90;;;;;;5060877;28;20424;-79
2023/02/05 12:26:33;;;;;;;3.97;2.50;;;7.30;99.90;;;;;;5063748;28;20412;-79
2023/02/05 12:29:11;;;;;;;5.20;3.00;;;7.10;99.90;;;;;;5044339;28;21012;-78
2023/02/05 12:31:50;;;;;;;5.90;3.47;;;7.20;99.90;;;;;;5063506;28;20426;-79
2023/02/05 12:34:29;;;;;;;3.80;2.30;;;7.30;99.90;;;;;;5062292;28;20497;-79
2023/02/05 12:37:21;;;;;;;4.00;2.43;;;7.30;99.90;;;;;;5063107;28;20440;-78
2023/02/05 12:39:52;;;;;;;3.20;2.40;;;7.30;99.90;;;;;;5054577;28;20451;-79
2023/02/05 12:42:39;;;;;;;4.40;2.63;;;7.40;99.90;;;;;;5063259;28;20431;-79
2023/02/05 12:45:05;;;;;;;4.53;2.37;;;7.50;99.90;;;;;;5061331;28;20527;-78
2023/02/05 12:47:40;;;;;;;3.73;2.50;;;7.30;99.90;;;;;;5062422;28;20486;-79
2023/02/05 12:50:17;;;;;;;2.90;2.10;;;7.20;99.90;;;;;;5045089;28;20280;-79
2023/02/05 12:52:53;;;;;;;5.23;3.67;;;7.20;99.90;;;;;;5061096;28;20491;-79
2023/02/05 12:55:43;;;;;;;2.40;2.20;;;7.20;99.90;;;;;;5061408;28;20440;-79
2023/02/05 12:58:12;;;;;;;4.80;2.50;;;7.40;99.90;;;;;;5061769;28;20989;-79
2023/02/05 13:00:48;;;;;;;3.57;2.27;;;7.20;99.90;;;;;;5061625;28;20424;-79
2023/02/05 13:03:16;;;;;;;3.07;2.77;;;7.20;99.90;;;;;;5061339;28;20412;-79